createdAt,value
2019-01-12T00:01:50.116Z,76.80
2019-01-12T00:04:17.195Z,76.67
2019-01-12T00:06:44.289Z,76.69
2019-01-12T00:09:12.386Z,76.72
2019-01-12T00:11:39.710Z,76.68
2019-01-12T00:14:06.752Z,76.71
2019-01-12T00:16:33.796Z,76.75
2019-01-12T00:19:00.842Z,76.75
2019-01-12T00:21:27.908Z,76.77
2019-01-12T00:23:54.958Z,76.75
2019-01-12T00:26:22.002Z,76.77
2019-01-12T00:28:49.083Z,76.70
2019-01-12T00:31:16.188Z,76.63
2019-01-12T00:33:43.217Z,76.67
2019-01-12T00:36:10.260Z,76.68
2019-01-12T00:38:37.303Z,76.67
2019-01-12T00:41:04.350Z,76.70
2019-01-12T00:43:31.409Z,76.70
2019-01-12T00:45:58.491Z,76.70
2019-01-12T00:48:25.564Z,76.76
2019-01-12T00:50:52.627Z,76.76
2019-01-12T00:53:19.686Z,76.87
2019-01-12T00:55:46.781Z,76.93
2019-01-12T00:58:13.814Z,76.95
2019-01-12T01:00:40.871Z,77.04
2019-01-12T01:03:07.937Z,77.06
2019-01-12T01:05:34.974Z,77.07
2019-01-12T01:08:02.046Z,77.12
2019-01-12T01:10:29.116Z,77.10
2019-01-12T01:12:56.181Z,77.16
2019-01-12T01:15:23.239Z,77.14
2019-01-12T01:17:50.344Z,77.08
2019-01-12T01:20:17.502Z,77.06
2019-01-12T01:22:44.546Z,77.07
2019-01-12T01:25:11.696Z,77.07
2019-01-12T01:27:38.738Z,77.03
2019-01-12T01:30:09.104Z,76.98
2019-01-12T01:32:36.159Z,76.89
2019-01-12T01:35:03.749Z,76.78
2019-01-12T01:37:30.807Z,76.76
2019-01-12T01:39:57.843Z,76.68
2019-01-12T01:42:24.913Z,76.65
2019-01-12T01:44:51.977Z,76.60
2019-01-12T01:47:19.035Z,76.53
2019-01-12T01:49:46.124Z,76.53
2019-01-12T01:52:13.169Z,76.49
2019-01-12T01:54:40.201Z,76.25
2019-01-12T01:57:07.239Z,76.09
2019-01-12T01:59:34.295Z,75.97
2019-01-12T02:02:01.334Z,75.89
2019-01-12T02:04:28.372Z,75.85
2019-01-12T02:06:55.422Z,75.82
2019-01-12T02:09:22.472Z,75.76
2019-01-12T02:11:49.514Z,75.76
2019-01-12T02:14:16.660Z,75.80
2019-01-12T02:16:43.688Z,75.94
2019-01-12T02:19:10.720Z,76.05
2019-01-12T02:21:37.770Z,76.18
2019-01-12T02:24:04.817Z,76.34
2019-01-12T02:26:31.849Z,76.46
2019-01-12T02:28:58.882Z,76.56
2019-01-12T02:31:25.941Z,76.56
2019-01-12T02:33:53.012Z,76.44
2019-01-12T02:36:20.050Z,76.35
2019-01-12T02:38:47.082Z,76.25
2019-01-12T02:41:14.121Z,76.24
2019-01-12T02:43:41.156Z,76.25
2019-01-12T02:46:08.180Z,76.26
2019-01-12T02:48:35.223Z,76.32
2019-01-12T02:51:02.242Z,76.28
2019-01-12T02:53:29.267Z,76.16
2019-01-12T02:55:56.289Z,76.04
2019-01-12T02:58:23.333Z,75.99
2019-01-12T03:00:50.401Z,75.95
2019-01-12T03:03:17.454Z,75.97
2019-01-12T03:05:44.473Z,75.99
2019-01-12T03:08:11.574Z,75.94
2019-01-12T03:10:38.544Z,75.92
2019-01-12T03:13:05.606Z,75.88
2019-01-12T03:15:32.648Z,75.81
2019-01-12T03:17:59.698Z,75.76
2019-01-12T03:20:26.745Z,75.80
2019-01-12T03:22:53.810Z,75.81
2019-01-12T03:25:20.853Z,75.79
2019-01-12T03:27:47.891Z,75.81
2019-01-12T03:30:16.579Z,75.81
2019-01-12T03:32:43.646Z,75.78
2019-01-12T03:35:10.752Z,75.73
2019-01-12T03:37:37.816Z,75.61
2019-01-12T03:40:06.527Z,75.52
2019-01-12T03:42:33.538Z,75.46
2019-01-12T03:45:00.599Z,75.47
2019-01-12T03:47:27.626Z,75.48
2019-01-12T03:49:54.683Z,75.49
2019-01-12T03:52:21.729Z,75.48
2019-01-12T03:54:48.776Z,75.51
2019-01-12T03:57:15.818Z,75.54
2019-01-12T03:59:42.846Z,75.50
2019-01-12T04:02:09.866Z,75.48
2019-01-12T04:04:38.027Z,75.49
2019-01-12T04:07:05.134Z,75.54
2019-01-12T04:09:32.168Z,75.58
2019-01-12T04:11:59.202Z,75.56
2019-01-12T04:14:26.233Z,75.48
2019-01-12T04:16:53.346Z,75.49
2019-01-12T04:19:20.366Z,75.18
2019-01-12T04:21:47.431Z,75.09
2019-01-12T04:24:14.448Z,75.15
2019-01-12T04:26:41.492Z,75.24
2019-01-12T04:29:08.509Z,75.32
2019-01-12T04:31:35.535Z,75.42
2019-01-12T04:34:02.564Z,75.59
2019-01-12T04:36:29.602Z,75.69
2019-01-12T04:38:56.649Z,75.77
2019-01-12T04:41:23.676Z,75.69
2019-01-12T04:43:50.722Z,75.60
2019-01-12T04:46:17.759Z,75.58
2019-01-12T04:48:44.791Z,75.56
2019-01-12T04:51:11.828Z,75.56
2019-01-12T04:53:38.973Z,75.66
2019-01-12T04:56:05.994Z,75.65
2019-01-12T04:58:33.031Z,75.66
2019-01-12T05:01:00.060Z,75.72
2019-01-12T05:03:27.119Z,75.74
2019-01-12T05:05:54.158Z,75.83
2019-01-12T05:08:21.202Z,75.96
2019-01-12T05:10:48.218Z,76.10
2019-01-12T05:13:15.253Z,76.16
2019-01-12T05:15:42.306Z,76.23
2019-01-12T05:18:09.345Z,76.14
2019-01-12T05:20:36.389Z,76.09
2019-01-12T05:23:03.419Z,76.04
2019-01-12T05:25:30.445Z,75.98
2019-01-12T05:27:57.477Z,75.89
2019-01-12T05:30:24.520Z,75.74
2019-01-12T05:32:51.541Z,75.65
2019-01-12T05:35:18.633Z,75.60
2019-01-12T05:37:45.683Z,75.62
2019-01-12T05:40:12.877Z,75.65
2019-01-12T05:42:39.950Z,75.63
2019-01-12T05:45:07.452Z,75.61
2019-01-12T05:47:34.563Z,75.69
2019-01-12T05:50:01.641Z,75.81
2019-01-12T05:52:29.005Z,75.83
2019-01-12T05:54:56.111Z,75.79
2019-01-12T05:57:23.172Z,75.82
2019-01-12T05:59:50.299Z,75.81
2019-01-12T06:02:17.321Z,75.81
2019-01-12T06:04:44.394Z,75.73
2019-01-12T06:07:11.453Z,75.76
2019-01-12T06:09:38.532Z,75.88
2019-01-12T06:12:05.588Z,76.01
2019-01-12T06:14:32.675Z,76.15
2019-01-12T06:16:59.750Z,76.21
2019-01-12T06:19:26.789Z,76.28
2019-01-12T06:21:53.842Z,76.40
2019-01-12T06:24:20.874Z,76.41
2019-01-12T06:26:47.894Z,76.47
2019-01-12T06:29:14.957Z,76.47
2019-01-12T06:31:41.966Z,76.40
2019-01-12T06:34:09.005Z,76.31
2019-01-12T06:36:36.075Z,76.26
2019-01-12T06:39:06.912Z,76.14
2019-01-12T06:41:33.993Z,76.10
2019-01-12T06:44:00.982Z,76.17
2019-01-12T06:46:28.037Z,76.18
2019-01-12T06:48:55.068Z,76.27
2019-01-12T06:51:22.106Z,76.35
2019-01-12T06:53:49.198Z,76.46
2019-01-12T06:56:16.218Z,76.46
2019-01-12T06:58:43.276Z,76.50
2019-01-12T07:01:10.327Z,76.57
2019-01-12T07:03:37.368Z,76.62
2019-01-12T07:06:04.422Z,76.70
2019-01-12T07:08:31.796Z,76.74
2019-01-12T07:10:58.837Z,76.75
2019-01-12T07:13:25.875Z,76.75
2019-01-12T07:15:52.972Z,76.74
2019-01-12T07:18:20.006Z,76.66
2019-01-12T07:20:47.064Z,76.64
2019-01-12T07:23:14.111Z,76.67
2019-01-12T07:25:41.159Z,76.64
2019-01-12T07:28:08.183Z,76.61
2019-01-12T07:30:35.217Z,77.03
2019-01-12T07:33:02.261Z,76.91
2019-01-12T07:35:29.316Z,76.81
2019-01-12T07:37:56.357Z,76.73
2019-01-12T07:40:23.415Z,76.49
2019-01-12T07:42:50.441Z,76.98
2019-01-12T07:45:17.481Z,76.09
2019-01-12T07:47:44.501Z,75.52
2019-01-12T07:50:12.816Z,75.81
2019-01-12T07:52:39.857Z,75.84
2019-01-12T07:55:07.136Z,75.11
2019-01-12T07:57:34.188Z,75.26
2019-01-12T08:00:02.262Z,75.16
2019-01-12T08:02:29.298Z,74.57
2019-01-12T08:04:56.329Z,74.00
2019-01-12T08:07:23.371Z,73.99
2019-01-12T08:09:50.421Z,74.33
2019-01-12T08:12:17.441Z,74.67
2019-01-12T08:14:44.478Z,74.91
2019-01-12T08:17:11.559Z,75.28
2019-01-12T08:19:38.590Z,75.36
2019-01-12T08:22:05.634Z,75.43
2019-01-12T08:24:32.682Z,75.44
2019-01-12T08:26:59.758Z,75.55
2019-01-12T08:29:26.781Z,75.61
2019-01-12T08:31:53.831Z,75.64
2019-01-12T08:34:20.901Z,75.52
2019-01-12T08:36:47.921Z,75.47
2019-01-12T08:39:14.985Z,75.40
2019-01-12T08:41:42.038Z,75.37
2019-01-12T08:44:09.064Z,75.35
2019-01-12T08:46:36.090Z,75.23
2019-01-12T08:49:03.141Z,75.18
2019-01-12T08:51:30.178Z,75.15
2019-01-12T08:53:57.250Z,75.12
2019-01-12T08:56:24.345Z,75.05
2019-01-12T08:58:51.371Z,74.99
2019-01-12T09:01:18.398Z,75.11
2019-01-12T09:03:45.440Z,75.19
2019-01-12T09:06:12.508Z,75.27
2019-01-12T09:08:39.540Z,75.37
2019-01-12T09:11:06.620Z,75.46
2019-01-12T09:13:33.655Z,75.48
2019-01-12T09:16:00.726Z,75.61
2019-01-12T09:18:27.798Z,75.66
2019-01-12T09:20:54.858Z,75.66
2019-01-12T09:23:22.759Z,75.70
2019-01-12T09:25:49.820Z,75.75
2019-01-12T09:28:16.866Z,75.78
2019-01-12T09:30:48.402Z,75.76
2019-01-12T09:33:13.161Z,75.77
2019-01-12T09:35:40.294Z,75.70
2019-01-12T09:38:07.354Z,75.58
2019-01-12T09:40:34.383Z,75.41
2019-01-12T09:43:01.434Z,75.41
2019-01-12T09:45:28.458Z,75.33
2019-01-12T09:47:55.498Z,75.20
2019-01-12T09:50:22.587Z,75.13
2019-01-12T09:52:50.088Z,75.00
2019-01-12T09:55:17.144Z,74.92
2019-01-12T09:57:44.190Z,74.92
2019-01-12T10:00:19.293Z,74.88
2019-01-12T10:02:46.465Z,74.90
2019-01-12T10:05:13.513Z,74.83
2019-01-12T10:07:40.555Z,74.79
2019-01-12T10:10:10.429Z,74.85
2019-01-12T10:12:37.489Z,74.84
2019-01-12T10:15:05.124Z,74.90
2019-01-12T10:17:32.180Z,74.74
2019-01-12T10:19:59.220Z,74.58
2019-01-12T10:22:28.635Z,74.51
2019-01-12T10:24:55.239Z,74.42
2019-01-12T10:27:22.294Z,74.25
2019-01-12T10:29:49.384Z,74.06
2019-01-12T10:32:16.413Z,74.05
2019-01-12T10:34:43.473Z,73.94
2019-01-12T10:37:10.551Z,74.04
2019-01-12T10:39:37.629Z,73.87
2019-01-12T10:42:04.679Z,73.91
2019-01-12T10:44:31.707Z,73.97
2019-01-12T10:46:58.761Z,74.04
2019-01-12T10:49:25.819Z,73.76
2019-01-12T10:51:52.882Z,73.46
2019-01-12T10:54:19.935Z,73.21
2019-01-12T10:56:46.975Z,72.95
2019-01-12T10:59:14.032Z,73.07
2019-01-12T11:01:41.108Z,72.96
2019-01-12T11:04:08.132Z,73.09
2019-01-12T11:06:35.174Z,73.06
2019-01-12T11:09:03.796Z,72.91
2019-01-12T11:11:31.475Z,72.90
2019-01-12T11:13:58.532Z,73.04
2019-01-12T11:16:25.630Z,73.21
2019-01-12T11:18:52.689Z,73.09
2019-01-12T11:21:19.786Z,72.98
2019-01-12T11:23:46.849Z,73.08
2019-01-12T11:26:13.917Z,73.06
2019-01-12T11:28:41.081Z,73.07
2019-01-12T11:31:08.453Z,73.05
2019-01-12T11:33:35.530Z,73.22
2019-01-12T11:36:02.597Z,73.15
2019-01-12T11:38:29.675Z,72.96
2019-01-12T11:40:56.769Z,72.82
2019-01-12T11:43:23.877Z,72.71
2019-01-12T11:45:50.946Z,72.89
2019-01-12T11:48:18.016Z,72.93
2019-01-12T11:50:45.102Z,72.95
2019-01-12T11:53:12.228Z,72.92
2019-01-12T11:55:39.324Z,73.06
2019-01-12T11:58:06.369Z,73.13
2019-01-12T12:00:33.422Z,73.41
2019-01-12T12:03:00.489Z,73.31
2019-01-12T12:05:27.533Z,73.50
2019-01-12T12:07:54.864Z,73.42
2019-01-12T12:10:22.067Z,73.45
2019-01-12T12:12:49.141Z,73.46
2019-01-12T12:15:16.942Z,73.49
2019-01-12T12:17:44.025Z,73.60
2019-01-12T12:20:16.359Z,73.73
2019-01-12T12:22:43.397Z,73.66
2019-01-12T12:25:10.462Z,73.50
2019-01-12T12:27:37.506Z,73.47
2019-01-12T12:30:06.501Z,73.13
2019-01-12T12:32:33.564Z,72.98
2019-01-12T12:35:00.621Z,72.96
2019-01-12T12:37:27.668Z,72.93
2019-01-12T12:39:54.743Z,72.92
2019-01-12T12:42:21.869Z,73.04
2019-01-12T12:44:48.940Z,73.05
2019-01-12T12:47:15.985Z,73.05
2019-01-12T12:49:43.088Z,72.97
2019-01-12T12:52:10.145Z,72.91
2019-01-12T12:54:37.244Z,72.78
2019-01-12T12:57:04.327Z,72.71
2019-01-12T12:59:31.409Z,72.72
2019-01-12T13:01:58.507Z,72.69
2019-01-12T13:04:25.597Z,72.66
2019-01-12T13:06:52.701Z,72.63
2019-01-12T13:09:19.788Z,72.63
2019-01-12T13:11:46.903Z,72.66
2019-01-12T13:14:13.998Z,72.73
2019-01-12T13:16:41.111Z,72.68
2019-01-12T13:19:08.176Z,72.58
2019-01-12T13:21:35.287Z,72.69
2019-01-12T13:24:02.410Z,72.80
2019-01-12T13:26:29.456Z,72.84
2019-01-12T13:28:56.556Z,72.96
2019-01-12T13:31:23.728Z,73.05
2019-01-12T13:33:50.959Z,73.06
2019-01-12T13:36:18.082Z,73.17
2019-01-12T13:38:45.232Z,73.16
2019-01-12T13:41:12.334Z,73.27
2019-01-12T13:43:39.484Z,73.35
2019-01-12T13:46:06.578Z,73.39
2019-01-12T13:48:33.690Z,73.41
2019-01-12T13:51:00.808Z,73.51
2019-01-12T13:53:27.914Z,73.51
2019-01-12T13:55:57.296Z,73.56
2019-01-12T13:58:24.397Z,73.58
2019-01-12T14:00:51.558Z,73.56
2019-01-12T14:03:18.923Z,73.42
2019-01-12T14:05:46.305Z,73.35
2019-01-12T14:08:13.424Z,73.35
2019-01-12T14:10:40.557Z,73.37
2019-01-12T14:13:07.982Z,73.32
2019-01-12T14:15:35.314Z,73.38
2019-01-12T14:18:02.630Z,73.36
2019-01-12T14:20:34.706Z,73.41
2019-01-12T14:23:01.815Z,73.35
2019-01-12T14:25:28.947Z,73.46
2019-01-12T14:27:56.016Z,73.36
2019-01-12T14:30:23.093Z,73.25
2019-01-12T14:32:50.240Z,73.26
2019-01-12T14:35:17.536Z,73.15
2019-01-12T14:37:44.647Z,73.19
2019-01-12T14:40:13.916Z,73.33
2019-01-12T14:42:41.321Z,73.39
2019-01-12T14:45:11.737Z,73.49
2019-01-12T14:47:38.813Z,73.57
2019-01-12T14:50:06.777Z,73.68
2019-01-12T14:52:33.853Z,73.67
2019-01-12T14:55:00.981Z,73.74
2019-01-12T14:57:28.117Z,73.70
2019-01-12T14:59:55.250Z,73.69
2019-01-12T15:02:23.197Z,73.66
2019-01-12T15:04:50.430Z,73.70
2019-01-12T15:07:17.543Z,73.69
2019-01-12T15:09:44.625Z,73.73
2019-01-12T15:12:13.606Z,73.77
2019-01-12T15:14:40.604Z,73.92
2019-01-12T15:17:07.699Z,73.95
2019-01-12T15:19:34.851Z,73.97
2019-01-12T15:22:02.012Z,73.90
2019-01-12T15:24:29.097Z,73.82
2019-01-12T15:26:56.241Z,73.78
2019-01-12T15:29:23.366Z,73.69
2019-01-12T15:31:50.488Z,73.61
2019-01-12T15:34:17.594Z,73.56
2019-01-12T15:36:45.142Z,73.53
2019-01-12T15:39:12.291Z,73.43
2019-01-12T15:41:39.426Z,73.92
2019-01-12T15:44:06.576Z,73.32
2019-01-12T15:46:33.687Z,74.29
2019-01-12T15:49:00.869Z,72.98
2019-01-12T15:51:30.749Z,73.51
2019-01-12T15:53:57.891Z,73.28
2019-01-12T15:56:25.011Z,72.63
2019-01-12T15:58:52.144Z,69.17
2019-01-12T16:01:19.306Z,68.53
2019-01-12T16:03:46.442Z,69.30
2019-01-12T16:06:13.607Z,69.95
2019-01-12T16:08:40.711Z,70.69
2019-01-12T16:11:08.108Z,71.03
2019-01-12T16:13:35.230Z,71.40
2019-01-12T16:16:02.397Z,71.71
2019-01-12T16:18:29.783Z,72.02
2019-01-12T16:20:56.936Z,72.17
2019-01-12T16:23:24.077Z,72.40
2019-01-12T16:25:51.309Z,72.48
2019-01-12T16:28:23.251Z,72.77
2019-01-12T16:30:50.519Z,72.79
2019-01-12T16:33:17.824Z,72.82
2019-01-12T16:35:44.924Z,72.82
2019-01-12T16:38:12.094Z,72.96
2019-01-12T16:40:39.236Z,73.09
2019-01-12T16:43:07.394Z,73.12
2019-01-12T16:45:34.537Z,73.16
2019-01-12T16:48:01.993Z,73.15
2019-01-12T16:50:31.173Z,73.14
2019-01-12T16:52:58.586Z,73.18
2019-01-12T16:55:25.732Z,73.27
2019-01-12T16:57:52.892Z,73.33
2019-01-12T17:00:27.622Z,73.39
2019-01-12T17:02:54.784Z,73.37
2019-01-12T17:05:22.032Z,73.27
2019-01-12T17:07:50.327Z,73.25
2019-01-12T17:10:18.434Z,73.30
2019-01-12T17:12:47.548Z,73.25
2019-01-12T17:15:16.593Z,73.26
2019-01-12T17:17:43.750Z,73.19
2019-01-12T17:20:16.263Z,73.21
2019-01-12T17:22:43.622Z,73.23
2019-01-12T17:25:10.755Z,73.21
2019-01-12T17:27:38.232Z,73.22
2019-01-12T17:30:08.838Z,73.19
2019-01-12T17:32:35.983Z,73.07
2019-01-12T17:35:03.940Z,72.87
2019-01-12T17:37:31.059Z,72.85
2019-01-12T17:39:58.214Z,72.73
2019-01-12T17:42:28.181Z,72.62
2019-01-12T17:44:55.294Z,72.47
2019-01-12T17:47:22.472Z,72.30
2019-01-12T17:49:49.623Z,72.38
2019-01-12T17:52:17.039Z,72.30
2019-01-12T17:54:44.185Z,72.21
2019-01-12T17:57:11.335Z,72.10
2019-01-12T17:59:38.761Z,72.12
2019-01-12T18:02:06.006Z,72.18
2019-01-12T18:04:33.189Z,72.34
2019-01-12T18:07:00.314Z,72.65
2019-01-12T18:09:27.549Z,72.31
2019-01-12T18:11:54.719Z,71.87
2019-01-12T18:14:21.905Z,71.63
2019-01-12T18:16:51.066Z,71.69
2019-01-12T18:19:18.198Z,70.80
2019-01-12T18:21:45.359Z,70.85
2019-01-12T18:24:12.488Z,71.08
2019-01-12T18:26:39.687Z,71.40
2019-01-12T18:29:07.102Z,71.56
2019-01-12T18:31:34.265Z,71.64
2019-01-12T18:34:01.464Z,71.71
2019-01-12T18:36:30.458Z,71.65
2019-01-12T18:38:57.637Z,71.62
2019-01-12T18:41:24.853Z,71.70
2019-01-12T18:43:52.033Z,71.62
2019-01-12T18:46:19.190Z,71.52
2019-01-12T18:48:46.825Z,71.59
2019-01-12T18:51:16.369Z,71.57
2019-01-12T18:53:44.937Z,71.70
2019-01-12T18:56:12.544Z,71.83
2019-01-12T18:58:39.892Z,71.88
2019-01-12T19:01:07.134Z,71.81
2019-01-12T19:03:34.768Z,71.89
2019-01-12T19:06:02.217Z,72.13
2019-01-12T19:08:29.455Z,72.30
2019-01-12T19:10:56.672Z,72.72
2019-01-12T19:13:24.280Z,72.94
2019-01-12T19:15:52.885Z,73.27
2019-01-12T19:18:20.913Z,73.58
2019-01-12T19:20:48.535Z,73.88
2019-01-12T19:23:18.826Z,74.06
2019-01-12T19:25:47.692Z,74.36
2019-01-12T19:28:16.092Z,74.62
2019-01-12T19:30:43.465Z,74.87
2019-01-12T19:33:10.848Z,74.87
2019-01-12T19:35:38.281Z,75.01
2019-01-12T19:38:05.823Z,75.06
2019-01-12T19:40:35.131Z,75.16
2019-01-12T19:43:04.704Z,75.35
2019-01-12T19:45:34.348Z,75.51
2019-01-12T19:48:02.115Z,75.69
2019-01-12T19:50:29.478Z,75.80
2019-01-12T19:52:57.220Z,75.91
2019-01-12T19:55:24.579Z,76.08
2019-01-12T19:57:52.333Z,76.20
2019-01-12T20:00:24.753Z,76.27
2019-01-12T20:02:51.983Z,76.37
2019-01-12T20:05:19.262Z,76.48
2019-01-12T20:07:48.016Z,76.61
2019-01-12T20:10:18.493Z,76.82
2019-01-12T20:12:45.776Z,76.76
2019-01-12T20:15:20.684Z,76.78
2019-01-12T20:17:48.807Z,76.78
2019-01-12T20:20:17.431Z,76.90
2019-01-12T20:22:45.028Z,76.96
2019-01-12T20:25:19.601Z,76.97
2019-01-12T20:27:46.858Z,77.04
2019-01-12T20:30:28.052Z,77.17
2019-01-12T20:33:21.074Z,77.18
2019-01-12T20:36:31.321Z,77.20
2019-01-12T20:39:34.027Z,77.26
2019-01-12T20:42:25.614Z,77.28
2019-01-12T20:45:52.884Z,77.34
2019-01-12T20:48:37.263Z,77.39
2019-01-12T20:52:01.510Z,77.44
2019-01-12T20:55:03.568Z,77.50
2019-01-12T20:57:40.634Z,77.55
2019-01-12T21:00:55.227Z,77.63
2019-01-12T21:03:52.352Z,77.59
2019-01-12T21:06:38.708Z,77.66
2019-01-12T21:09:37.504Z,77.73
2019-01-12T21:12:45.232Z,77.80
2019-01-12T21:15:17.820Z,77.89
2019-01-12T21:17:45.628Z,77.94
2019-01-12T21:20:13.016Z,77.90
2019-01-12T21:22:40.358Z,77.92
2019-01-12T21:25:07.873Z,77.95
2019-01-12T21:27:36.628Z,78.03
2019-01-12T21:30:07.813Z,78.09
2019-01-12T21:32:37.784Z,78.12
2019-01-12T21:35:06.922Z,78.13
2019-01-12T21:37:35.605Z,78.13
2019-01-12T21:40:03.998Z,78.09
2019-01-12T21:42:31.244Z,78.11
2019-01-12T21:44:58.542Z,78.10
2019-01-12T21:47:26.807Z,78.04
2019-01-12T21:49:54.017Z,77.97
2019-01-12T21:52:22.507Z,78.03
2019-01-12T21:54:49.725Z,78.07
2019-01-12T21:57:18.953Z,78.08
2019-01-12T21:59:49.112Z,78.11
2019-01-12T22:02:16.379Z,78.00
2019-01-12T22:04:43.589Z,77.89
2019-01-12T22:07:11.139Z,77.97
2019-01-12T22:09:38.375Z,78.10
2019-01-12T22:12:05.569Z,78.17
2019-01-12T22:14:32.758Z,78.18
2019-01-12T22:17:01.307Z,78.21
2019-01-12T22:19:29.446Z,78.17
2019-01-12T22:21:56.625Z,78.14
2019-01-12T22:24:23.914Z,78.13
2019-01-12T22:26:51.150Z,78.12
2019-01-12T22:29:18.405Z,78.16
2019-01-12T22:31:45.611Z,78.23
2019-01-12T22:34:13.889Z,78.23
2019-01-12T22:36:41.064Z,78.26
2019-01-12T22:39:09.049Z,78.29
2019-01-12T22:41:36.740Z,78.29
2019-01-12T22:44:06.480Z,78.36
2019-01-12T22:46:33.690Z,78.36
2019-01-12T22:49:00.887Z,78.37
2019-01-12T22:51:28.088Z,78.36
2019-01-12T22:53:55.243Z,78.34
2019-01-12T22:56:22.721Z,78.35
2019-01-12T22:58:49.931Z,78.39
2019-01-12T23:01:41.479Z,78.47
2019-01-12T23:04:08.975Z,78.47
2019-01-12T23:06:36.210Z,78.45
2019-01-12T23:09:07.952Z,78.45
2019-01-12T23:11:35.173Z,78.49
2019-01-12T23:14:02.300Z,78.49
2019-01-12T23:16:30.468Z,78.54
2019-01-12T23:18:57.681Z,78.56
2019-01-12T23:21:24.965Z,78.58
2019-01-12T23:23:52.150Z,78.59
2019-01-12T23:26:19.283Z,78.53
2019-01-12T23:28:46.440Z,78.47
2019-01-12T23:31:13.565Z,78.44
2019-01-12T23:33:40.703Z,78.43
2019-01-12T23:36:07.843Z,78.42
2019-01-12T23:38:34.981Z,78.39
2019-01-12T23:41:02.142Z,78.33
2019-01-12T23:43:29.288Z,78.32
2019-01-12T23:45:56.467Z,78.25
2019-01-12T23:48:23.588Z,78.20
2019-01-12T23:50:50.723Z,78.17
2019-01-12T23:53:17.846Z,78.17
2019-01-12T23:55:45.053Z,78.13
2019-01-12T23:58:12.250Z,78.11
